createdAt,value
2023-04-04T00:00:49.556Z,100.00
2023-04-04T00:01:49.583Z,100.00
2023-04-04T00:02:49.840Z,100.00
2023-04-04T00:03:49.787Z,100.00
2023-04-04T00:04:49.626Z,100.00
2023-04-04T00:05:49.629Z,100.00
2023-04-04T00:06:49.633Z,100.00
2023-04-04T00:07:49.649Z,100.00
2023-04-04T00:08:49.650Z,100.00
2023-04-04T00:09:49.682Z,100.00
2023-04-04T00:10:49.675Z,100.00
2023-04-04T00:11:49.701Z,100.00
2023-04-04T00:12:49.706Z,100.00
2023-04-04T00:13:49.723Z,100.00
2023-04-04T00:14:49.739Z,100.00
2023-04-04T00:15:49.773Z,100.00
2023-04-04T00:16:49.728Z,100.00
2023-04-04T00:17:49.767Z,100.00
2023-04-04T00:18:49.754Z,100.00
2023-04-04T00:19:49.808Z,100.00
2023-04-04T00:20:49.797Z,100.00
2023-04-04T00:21:49.795Z,100.00
2023-04-04T00:22:49.811Z,100.00
2023-04-04T00:23:49.815Z,100.00
2023-04-04T00:24:49.854Z,100.00
2023-04-04T00:25:49.846Z,100.00
2023-04-04T00:26:49.858Z,100.00
2023-04-04T00:27:49.865Z,100.00
2023-04-04T00:28:49.891Z,100.00
2023-04-04T00:29:49.908Z,100.00
2023-04-04T00:30:49.904Z,100.00
2023-04-04T00:31:49.973Z,100.00
2023-04-04T00:32:49.972Z,100.00
2023-04-04T00:33:49.966Z,100.00
2023-04-04T00:34:49.991Z,100.00
2023-04-04T00:35:49.992Z,100.00
2023-04-04T00:36:49.988Z,100.00
2023-04-04T00:37:49.993Z,100.00
2023-04-04T00:38:50.009Z,100.00
2023-04-04T00:39:50.148Z,100.00
2023-04-04T00:40:50.088Z,100.00
2023-04-04T00:41:50.052Z,100.00
2023-04-04T00:42:50.044Z,100.00
2023-04-04T00:43:50.063Z,100.00
2023-04-04T00:44:50.070Z,100.00
2023-04-04T00:45:50.146Z,100.00
2023-04-04T00:46:50.097Z,100.00
2023-04-04T00:47:50.200Z,100.00
2023-04-04T00:48:50.122Z,100.00
2023-04-04T00:49:50.157Z,100.00
2023-04-04T00:50:50.145Z,100.00
2023-04-04T00:51:50.168Z,100.00
2023-04-04T00:52:50.197Z,100.00
2023-04-04T00:53:50.303Z,100.00
2023-04-04T00:54:50.200Z,100.00
2023-04-04T00:55:50.213Z,100.00
2023-04-04T00:56:50.242Z,100.00
2023-04-04T00:57:50.241Z,100.00
2023-04-04T00:58:50.322Z,100.00
2023-04-04T00:59:50.253Z,100.00
2023-04-04T01:00:50.288Z,100.00
2023-04-04T01:01:50.353Z,100.00
2023-04-04T01:02:50.337Z,100.00
2023-04-04T01:03:50.326Z,100.00
2023-04-04T01:04:50.308Z,100.00
2023-04-04T01:05:50.304Z,100.00
2023-04-04T01:06:50.341Z,100.00
2023-04-04T01:07:50.342Z,100.00
2023-04-04T01:08:50.349Z,100.00
2023-04-04T01:09:50.373Z,100.00
2023-04-04T01:10:50.368Z,100.00
2023-04-04T01:11:50.386Z,100.00
2023-04-04T01:12:50.402Z,100.00
2023-04-04T01:13:50.411Z,100.00
2023-04-04T01:14:50.427Z,100.00
2023-04-04T01:15:50.453Z,100.00
2023-04-04T01:16:50.499Z,100.00
2023-04-04T01:17:50.497Z,100.00
2023-04-04T01:18:50.492Z,100.00
2023-04-04T01:19:50.465Z,100.00
2023-04-04T01:20:50.493Z,100.00
2023-04-04T01:21:50.520Z,100.00
2023-04-04T01:22:50.531Z,100.00
2023-04-04T01:23:50.531Z,100.00
2023-04-04T01:24:50.556Z,100.00
2023-04-04T01:25:50.548Z,100.00
2023-04-04T01:26:50.597Z,100.00
2023-04-04T01:28:10.563Z,100.00
2023-04-04T01:29:10.521Z,100.00
2023-04-04T01:30:10.552Z,100.00
2023-04-04T01:31:10.625Z,100.00
2023-04-04T01:32:10.530Z,100.00
2023-04-04T01:33:10.720Z,100.00
2023-04-04T01:34:10.500Z,100.00
2023-04-04T01:35:10.562Z,100.00
2023-04-04T01:36:10.600Z,100.00
2023-04-04T01:37:10.550Z,100.00
2023-04-04T01:38:10.534Z,100.00
2023-04-04T01:39:10.526Z,100.00
2023-04-04T01:40:10.526Z,100.00
2023-04-04T01:41:10.583Z,100.00
2023-04-04T01:42:10.559Z,100.00
2023-04-04T01:43:10.549Z,100.00
2023-04-04T01:44:10.552Z,100.00
2023-04-04T01:45:10.545Z,100.00
2023-04-04T01:46:10.584Z,100.00
2023-04-04T01:47:10.561Z,100.00
2023-04-04T01:48:10.554Z,100.00
2023-04-04T01:49:11.216Z,100.00
2023-04-04T01:50:10.583Z,100.00
2023-04-04T01:51:10.564Z,100.00
2023-04-04T01:52:10.581Z,100.00
2023-04-04T01:53:10.587Z,100.00
2023-04-04T01:54:10.537Z,100.00
2023-04-04T01:55:10.573Z,100.00
2023-04-04T01:56:10.582Z,100.00
2023-04-04T01:57:10.568Z,100.00
2023-04-04T01:58:10.580Z,100.00
2023-04-04T01:59:10.625Z,100.00
2023-04-04T02:00:10.603Z,100.00
2023-04-04T02:01:10.615Z,100.00
2023-04-04T02:02:10.562Z,100.00
2023-04-04T02:03:10.551Z,100.00
2023-04-04T02:04:10.607Z,100.00
2023-04-04T02:05:10.712Z,100.00
2023-04-04T02:06:10.723Z,100.00
2023-04-04T02:07:10.746Z,100.00
2023-04-04T02:08:10.759Z,100.00
2023-04-04T02:09:10.767Z,100.00
2023-04-04T02:10:10.755Z,100.00
2023-04-04T02:11:10.761Z,100.00
2023-04-04T02:12:10.831Z,100.00
2023-04-04T02:13:10.814Z,100.00
2023-04-04T02:14:10.794Z,100.00
2023-04-04T02:15:10.839Z,100.00
2023-04-04T02:16:10.844Z,100.00
2023-04-04T02:17:10.846Z,100.00
2023-04-04T02:18:10.842Z,100.00
2023-04-04T02:19:10.859Z,100.00
2023-04-04T02:20:10.857Z,100.00
2023-04-04T02:21:10.926Z,100.00
2023-04-04T02:22:10.911Z,100.00
2023-04-04T02:23:10.944Z,100.00
2023-04-04T02:24:10.919Z,100.00
2023-04-04T02:25:10.952Z,100.00
2023-04-04T02:26:10.939Z,100.00
2023-04-04T02:27:10.955Z,100.00
2023-04-04T02:28:10.984Z,100.00
2023-04-04T02:29:11.003Z,100.00
2023-04-04T02:30:11.006Z,100.00
2023-04-04T02:31:11.027Z,100.00
2023-04-04T02:32:11.004Z,100.00
2023-04-04T02:33:11.045Z,100.00
2023-04-04T02:34:11.048Z,100.00
2023-04-04T02:35:11.073Z,100.00
2023-04-04T02:36:11.145Z,100.00
2023-04-04T02:37:11.097Z,100.00
2023-04-04T02:38:11.124Z,100.00
2023-04-04T02:39:11.118Z,100.00
2023-04-04T02:40:11.136Z,100.00
2023-04-04T02:41:11.130Z,100.00
2023-04-04T02:42:11.138Z,100.00
2023-04-04T02:43:11.138Z,100.00
2023-04-04T02:44:11.174Z,100.00
2023-04-04T02:45:11.200Z,100.00
2023-04-04T02:46:21.201Z,100.00
2023-04-04T02:47:11.309Z,100.00
2023-04-04T02:48:11.257Z,100.00
2023-04-04T02:49:11.190Z,100.00
2023-04-04T02:50:11.180Z,100.00
2023-04-04T02:51:11.190Z,100.00
2023-04-04T02:52:11.196Z,100.00
2023-04-04T02:53:11.198Z,100.00
2023-04-04T02:54:11.182Z,100.00
2023-04-04T02:55:11.178Z,100.00
2023-04-04T02:56:11.220Z,100.00
2023-04-04T02:57:11.178Z,100.00
2023-04-04T02:58:11.199Z,100.00
2023-04-04T02:59:11.255Z,100.00
2023-04-04T03:00:11.194Z,100.00
2023-04-04T03:01:11.247Z,100.00
2023-04-04T03:02:11.306Z,100.00
2023-04-04T03:03:11.429Z,100.00
2023-04-04T03:04:11.249Z,100.00
2023-04-04T03:05:11.203Z,100.00
2023-04-04T03:06:11.188Z,100.00
2023-04-04T03:07:11.194Z,100.00
2023-04-04T03:08:11.208Z,100.00
2023-04-04T03:09:11.215Z,100.00
2023-04-04T03:10:11.213Z,100.00
2023-04-04T03:11:11.216Z,100.00
2023-04-04T03:12:11.201Z,100.00
2023-04-04T03:13:11.217Z,100.00
2023-04-04T03:14:11.251Z,100.00
2023-04-04T03:15:11.203Z,100.00
2023-04-04T03:16:11.234Z,100.00
2023-04-04T03:17:11.237Z,100.00
2023-04-04T03:18:11.285Z,100.00
2023-04-04T03:19:11.243Z,100.00
2023-04-04T03:20:11.243Z,100.00
2023-04-04T03:21:11.220Z,100.00
2023-04-04T03:22:11.229Z,100.00
2023-04-04T03:23:11.232Z,100.00
2023-04-04T03:24:11.255Z,100.00
2023-04-04T03:25:11.227Z,100.00
2023-04-04T03:26:11.227Z,100.00
2023-04-04T03:27:11.219Z,100.00
2023-04-04T03:28:11.249Z,100.00
2023-04-04T03:29:11.248Z,100.00
2023-04-04T03:30:11.265Z,100.00
2023-04-04T03:31:11.250Z,100.00
2023-04-04T03:32:11.322Z,100.00
2023-04-04T03:33:11.288Z,100.00
2023-04-04T03:34:11.307Z,100.00
2023-04-04T03:35:11.314Z,100.00
2023-04-04T03:36:11.378Z,100.00
2023-04-04T03:37:11.340Z,100.00
2023-04-04T03:38:11.420Z,100.00
2023-04-04T03:39:11.362Z,100.00
2023-04-04T03:40:11.344Z,100.00
2023-04-04T03:41:11.370Z,100.00
2023-04-04T03:42:11.376Z,100.00
2023-04-04T03:43:11.419Z,100.00
2023-04-04T03:44:11.430Z,100.00
2023-04-04T03:45:11.437Z,100.00
2023-04-04T03:46:11.475Z,100.00
2023-04-04T03:47:11.438Z,100.00
2023-04-04T03:48:11.454Z,100.00
2023-04-04T03:49:11.475Z,100.00
2023-04-04T03:50:11.487Z,100.00
2023-04-04T03:51:11.466Z,100.00
2023-04-04T03:52:11.485Z,100.00
2023-04-04T03:53:11.481Z,100.00
2023-04-04T03:54:11.534Z,100.00
2023-04-04T03:55:11.510Z,100.00
2023-04-04T03:56:11.524Z,100.00
2023-04-04T03:57:11.526Z,100.00
2023-04-04T03:58:11.567Z,100.00
2023-04-04T03:59:11.584Z,100.00
2023-04-04T04:00:11.573Z,100.00
2023-04-04T04:01:11.578Z,100.00
2023-04-04T04:02:11.647Z,100.00
2023-04-04T04:03:11.830Z,100.00
2023-04-04T04:04:11.674Z,100.00
2023-04-04T04:05:11.621Z,100.00
2023-04-04T04:06:11.645Z,100.00
2023-04-04T04:07:11.656Z,100.00
2023-04-04T04:08:11.684Z,100.00
2023-04-04T04:09:11.721Z,100.00
2023-04-04T04:10:11.700Z,100.00
2023-04-04T04:11:11.743Z,100.00
2023-04-04T04:12:11.706Z,100.00
2023-04-04T04:13:11.759Z,100.00
2023-04-04T04:14:11.738Z,100.00
2023-04-04T04:15:11.800Z,100.00
2023-04-04T04:16:11.775Z,100.00
2023-04-04T04:17:11.793Z,100.00
2023-04-04T04:18:11.783Z,100.00
2023-04-04T04:19:11.814Z,100.00
2023-04-04T04:20:11.814Z,100.00
2023-04-04T04:21:11.805Z,100.00
2023-04-04T04:22:11.829Z,100.00
2023-04-04T04:23:11.845Z,100.00
2023-04-04T04:24:11.852Z,100.00
2023-04-04T04:25:11.881Z,100.00
2023-04-04T04:26:11.875Z,100.00
2023-04-04T04:27:11.886Z,100.00
2023-04-04T04:28:11.894Z,100.00
2023-04-04T04:29:11.904Z,100.00
2023-04-04T04:30:11.963Z,100.00
2023-04-04T04:31:11.992Z,100.00
2023-04-04T04:32:11.947Z,100.00
2023-04-04T04:33:11.999Z,100.00
2023-04-04T04:34:12.002Z,100.00
2023-04-04T04:35:12.001Z,100.00
2023-04-04T04:36:12.046Z,100.00
2023-04-04T04:37:12.060Z,100.00
2023-04-04T04:38:12.020Z,100.00
2023-04-04T04:39:12.027Z,100.00
2023-04-04T04:40:12.060Z,100.00
2023-04-04T04:41:12.078Z,100.00
2023-04-04T04:42:12.079Z,100.00
2023-04-04T04:43:12.083Z,100.00
2023-04-04T04:44:12.090Z,100.00
2023-04-04T04:45:12.140Z,100.00
2023-04-04T04:46:12.150Z,100.00
2023-04-04T04:47:12.122Z,100.00
2023-04-04T04:48:12.164Z,100.00
2023-04-04T04:49:12.239Z,100.00
2023-04-04T04:50:12.169Z,100.00
2023-04-04T04:51:12.185Z,100.00
2023-04-04T04:52:12.185Z,100.00
2023-04-04T04:53:12.223Z,100.00
2023-04-04T04:54:12.254Z,100.00
2023-04-04T04:55:12.209Z,100.00
2023-04-04T04:56:12.268Z,100.00
2023-04-04T04:57:12.258Z,100.00
2023-04-04T04:58:12.242Z,100.00
2023-04-04T04:59:12.299Z,100.00
2023-04-04T05:00:12.321Z,100.00
2023-04-04T05:01:12.372Z,100.00
2023-04-04T05:02:12.399Z,100.00
2023-04-04T05:03:12.383Z,100.00
2023-04-04T05:04:12.332Z,100.00
2023-04-04T05:05:12.325Z,100.00
2023-04-04T05:06:12.392Z,100.00
2023-04-04T05:07:12.369Z,100.00
2023-04-04T05:08:12.371Z,100.00
2023-04-04T05:09:12.437Z,100.00
2023-04-04T05:10:12.398Z,100.00
2023-04-04T05:11:12.427Z,100.00
2023-04-04T05:12:12.435Z,100.00
2023-04-04T05:13:12.448Z,100.00
2023-04-04T05:14:12.449Z,100.00
2023-04-04T05:15:12.464Z,100.00
2023-04-04T05:16:12.494Z,100.00
2023-04-04T05:17:12.482Z,100.00
2023-04-04T05:18:12.497Z,100.00
2023-04-04T05:19:12.497Z,100.00
2023-04-04T05:20:12.513Z,100.00
2023-04-04T05:21:12.519Z,100.00
2023-04-04T05:22:12.530Z,100.00
2023-04-04T05:23:12.558Z,100.00
2023-04-04T05:24:12.555Z,100.00
2023-04-04T05:25:12.565Z,100.00
2023-04-04T05:26:12.576Z,100.00
2023-04-04T05:27:12.602Z,100.00
2023-04-04T05:28:12.632Z,100.00
2023-04-04T05:29:12.634Z,100.00
2023-04-04T05:30:12.662Z,100.00
2023-04-04T05:31:12.667Z,100.00
2023-04-04T05:32:12.688Z,100.00
2023-04-04T05:33:12.722Z,100.00
2023-04-04T05:34:12.691Z,100.00
2023-04-04T05:35:12.724Z,100.00
2023-04-04T05:36:12.792Z,100.00
2023-04-04T05:37:12.701Z,100.00
2023-04-04T05:38:12.739Z,100.00
2023-04-04T05:39:12.732Z,100.00
2023-04-04T05:40:12.794Z,100.00
2023-04-04T05:41:12.759Z,100.00
2023-04-04T05:42:12.785Z,100.00
2023-04-04T05:43:12.784Z,100.00
2023-04-04T05:44:12.799Z,100.00
2023-04-04T05:45:12.839Z,100.00
2023-04-04T05:46:12.865Z,100.00
2023-04-04T05:47:12.826Z,100.00
2023-04-04T05:48:12.840Z,100.00
2023-04-04T05:49:12.880Z,100.00
2023-04-04T05:50:12.914Z,100.00
2023-04-04T05:51:12.931Z,100.00
2023-04-04T05:52:12.884Z,100.00
2023-04-04T05:53:12.928Z,100.00
2023-04-04T05:54:12.951Z,100.00
2023-04-04T05:55:12.939Z,100.00
2023-04-04T05:56:12.946Z,100.00
2023-04-04T05:57:12.951Z,100.00
2023-04-04T05:58:13.669Z,100.00
2023-04-04T05:59:13.005Z,100.00
2023-04-04T06:00:12.990Z,100.00
2023-04-04T06:01:13.038Z,100.00
2023-04-04T06:02:13.067Z,100.00
2023-04-04T06:03:13.151Z,100.00
2023-04-04T06:04:13.058Z,100.00
2023-04-04T06:05:13.050Z,100.00
2023-04-04T06:06:13.127Z,100.00
2023-04-04T06:07:13.073Z,100.00
2023-04-04T06:08:13.119Z,100.00
2023-04-04T06:09:13.110Z,100.00
2023-04-04T06:10:13.117Z,100.00
2023-04-04T06:11:13.304Z,100.00
2023-04-04T06:12:13.135Z,100.00
2023-04-04T06:13:13.156Z,100.00
2023-04-04T06:14:15.100Z,100.00
2023-04-04T06:15:13.186Z,100.00
2023-04-04T06:16:13.245Z,100.00
2023-04-04T06:17:13.226Z,100.00
2023-04-04T06:18:13.232Z,100.00
2023-04-04T06:19:13.219Z,100.00
2023-04-04T06:20:13.269Z,100.00
2023-04-04T06:21:13.250Z,100.00
2023-04-04T06:22:13.293Z,100.00
2023-04-04T06:23:13.288Z,100.00
2023-04-04T06:24:13.279Z,100.00
2023-04-04T06:25:13.306Z,100.00
2023-04-04T06:26:13.300Z,100.00
2023-04-04T06:27:13.343Z,100.00
2023-04-04T06:28:13.333Z,100.00
2023-04-04T06:29:13.335Z,100.00
2023-04-04T06:30:13.349Z,100.00
2023-04-04T06:31:13.394Z,100.00
2023-04-04T06:32:13.392Z,100.00
2023-04-04T06:33:13.387Z,100.00
2023-04-04T06:34:13.399Z,100.00
2023-04-04T06:35:13.412Z,100.00
2023-04-04T06:36:13.480Z,100.00
2023-04-04T06:37:13.444Z,100.00
2023-04-04T06:38:13.449Z,100.00
2023-04-04T06:39:13.514Z,100.00
2023-04-04T06:40:13.474Z,100.00
2023-04-04T06:41:13.477Z,100.00
2023-04-04T06:42:13.503Z,100.00
2023-04-04T06:43:13.574Z,100.00
2023-04-04T06:44:13.537Z,100.00
2023-04-04T06:45:13.523Z,100.00
2023-04-04T06:46:13.568Z,100.00
2023-04-04T06:47:13.562Z,100.00
2023-04-04T06:48:13.560Z,100.00
2023-04-04T06:49:13.620Z,100.00
2023-04-04T06:50:13.625Z,100.00
2023-04-04T06:51:13.617Z,100.00
2023-04-04T06:52:13.601Z,100.00
2023-04-04T06:53:13.627Z,100.00
2023-04-04T06:54:13.626Z,100.00
2023-04-04T06:55:13.673Z,100.00
2023-04-04T06:56:13.719Z,100.00
2023-04-04T06:57:13.669Z,100.00
2023-04-04T06:58:13.702Z,100.00
2023-04-04T06:59:13.824Z,100.00
2023-04-04T07:00:13.712Z,100.00
2023-04-04T07:01:13.783Z,100.00
2023-04-04T07:02:13.753Z,100.00
2023-04-04T07:03:13.840Z,100.00
2023-04-04T07:04:13.749Z,100.00
2023-04-04T07:05:13.763Z,100.00
2023-04-04T07:06:13.773Z,100.00
2023-04-04T07:07:13.780Z,100.00
2023-04-04T07:08:13.802Z,100.00
2023-04-04T07:09:25.978Z,100.00
2023-04-04T07:10:13.803Z,100.00
2023-04-04T07:11:13.813Z,100.00
2023-04-04T07:12:13.798Z,100.00
2023-04-04T07:13:13.814Z,100.00
2023-04-04T07:14:13.836Z,100.00
2023-04-04T07:15:13.824Z,100.00
2023-04-04T07:16:13.865Z,100.00
2023-04-04T07:17:24.040Z,100.00
2023-04-04T07:18:13.812Z,100.00
2023-04-04T07:19:13.803Z,100.00
2023-04-04T07:20:13.827Z,100.00
2023-04-04T07:21:13.832Z,100.00
2023-04-04T07:22:13.850Z,100.00
2023-04-04T07:23:13.809Z,100.00
2023-04-04T07:24:13.830Z,100.00
2023-04-04T07:25:13.845Z,100.00
2023-04-04T07:26:13.820Z,100.00
2023-04-04T07:27:13.830Z,100.00
2023-04-04T07:28:34.797Z,100.00
2023-04-04T07:29:34.747Z,100.00
2023-04-04T07:30:34.740Z,100.00
2023-04-04T07:31:34.751Z,100.00
2023-04-04T07:32:34.765Z,100.00
2023-04-04T07:33:34.741Z,100.00
2023-04-04T07:34:34.730Z,100.00
2023-04-04T07:35:34.776Z,100.00
2023-04-04T07:36:34.754Z,100.00
2023-04-04T07:37:34.734Z,100.00
2023-04-04T07:38:34.740Z,100.00
2023-04-04T07:39:34.766Z,100.00
2023-04-04T07:40:34.766Z,100.00
2023-04-04T07:41:34.752Z,100.00
2023-04-04T07:42:34.730Z,100.00
2023-04-04T07:43:34.752Z,100.00
2023-04-04T07:44:34.738Z,100.00
2023-04-04T07:45:34.770Z,100.00
2023-04-04T07:46:34.875Z,100.00
2023-04-04T07:47:34.767Z,100.00
2023-04-04T07:48:34.758Z,100.00
2023-04-04T07:49:34.747Z,100.00
2023-04-04T07:50:34.757Z,100.00
2023-04-04T07:51:34.765Z,100.00
2023-04-04T07:52:34.763Z,100.00
2023-04-04T07:53:34.740Z,100.00
2023-04-04T07:54:34.746Z,100.00
2023-04-04T07:55:34.754Z,100.00
2023-04-04T07:56:34.766Z,100.00
2023-04-04T07:57:34.766Z,100.00
2023-04-04T07:58:34.752Z,100.00
2023-04-04T07:59:34.747Z,100.00
2023-04-04T08:00:34.756Z,100.00
2023-04-04T08:01:34.754Z,100.00
2023-04-04T08:02:34.864Z,100.00
2023-04-04T08:03:35.164Z,100.00
2023-04-04T08:04:34.920Z,100.00
2023-04-04T08:05:34.903Z,100.00
2023-04-04T08:06:34.910Z,100.00
2023-04-04T08:07:34.949Z,100.00
2023-04-04T08:08:35.005Z,100.00
2023-04-04T08:09:34.953Z,100.00
2023-04-04T08:10:34.988Z,100.00
2023-04-04T08:11:34.996Z,100.00
2023-04-04T08:12:34.991Z,100.00
2023-04-04T08:13:35.041Z,100.00
2023-04-04T08:14:35.015Z,100.00
2023-04-04T08:15:35.059Z,100.00
2023-04-04T08:16:35.041Z,100.00
2023-04-04T08:17:35.068Z,100.00
2023-04-04T08:18:35.085Z,100.00
2023-04-04T08:19:35.069Z,100.00
2023-04-04T08:20:35.093Z,100.00
2023-04-04T08:21:35.094Z,100.00
2023-04-04T08:22:35.114Z,100.00
2023-04-04T08:23:35.162Z,100.00
2023-04-04T08:24:35.145Z,100.00
2023-04-04T08:25:35.279Z,100.00
2023-04-04T08:26:35.153Z,100.00
2023-04-04T08:27:35.169Z,100.00
2023-04-04T08:28:35.238Z,100.00
2023-04-04T08:29:35.213Z,100.00
2023-04-04T08:30:35.238Z,100.00
2023-04-04T08:31:35.328Z,100.00
2023-04-04T08:32:35.259Z,100.00
2023-04-04T08:33:46.747Z,100.00
2023-04-04T08:34:35.262Z,100.00
2023-04-04T08:35:35.311Z,100.00
2023-04-04T08:36:35.299Z,100.00
2023-04-04T08:37:35.293Z,100.00
2023-04-04T08:38:35.320Z,100.00
2023-04-04T08:39:35.299Z,100.00
2023-04-04T08:40:35.283Z,100.00
2023-04-04T08:41:35.305Z,100.00
2023-04-04T08:42:35.293Z,100.00
2023-04-04T08:43:35.300Z,100.00
2023-04-04T08:44:35.308Z,100.00
2023-04-04T08:45:35.300Z,100.00
2023-04-04T08:46:35.305Z,100.00
2023-04-04T08:47:35.319Z,100.00
2023-04-04T08:48:35.321Z,100.00
2023-04-04T08:49:35.325Z,100.00
2023-04-04T08:50:35.310Z,100.00
2023-04-04T08:51:35.299Z,100.00
2023-04-04T08:52:35.310Z,100.00
2023-04-04T08:53:35.336Z,100.00
2023-04-04T08:54:35.345Z,100.00
2023-04-04T08:55:35.319Z,100.00
2023-04-04T08:56:35.342Z,100.00
2023-04-04T08:57:35.350Z,100.00
2023-04-04T08:58:35.349Z,100.00
2023-04-04T08:59:35.542Z,100.00
2023-04-04T09:00:35.317Z,100.00
2023-04-04T09:01:35.289Z,100.00
2023-04-04T09:02:35.377Z,100.00
2023-04-04T09:03:35.361Z,100.00
2023-04-04T09:04:35.312Z,100.00
2023-04-04T09:05:35.330Z,100.00
2023-04-04T09:06:35.336Z,100.00
2023-04-04T09:08:35.405Z,97.25
2023-04-04T09:09:35.389Z,99.93
2023-04-04T09:10:35.401Z,93.74
2023-04-04T09:11:35.415Z,90.56
2023-04-04T09:12:35.440Z,93.08
2023-04-04T09:13:35.424Z,97.53
2023-04-04T09:14:35.423Z,100.00
2023-04-04T09:15:35.444Z,96.41
2023-04-04T09:16:35.467Z,87.17
2023-04-04T09:17:35.460Z,85.84
2023-04-04T09:18:35.524Z,91.29
2023-04-04T09:19:35.493Z,80.37
2023-04-04T09:20:35.523Z,78.20
2023-04-04T09:21:35.554Z,73.13
2023-04-04T09:22:35.539Z,79.06
2023-04-04T09:23:35.518Z,84.31
2023-04-04T09:24:35.575Z,82.23
2023-04-04T09:25:35.540Z,87.75
2023-04-04T09:26:35.602Z,88.95
2023-04-04T09:27:35.721Z,80.26
2023-04-04T09:28:35.608Z,76.22
2023-04-04T09:29:35.644Z,79.66
2023-04-04T09:30:35.660Z,75.75
2023-04-04T09:31:35.703Z,71.55
2023-04-04T09:32:35.676Z,68.38
2023-04-04T09:33:35.685Z,63.76
2023-04-04T09:34:35.679Z,62.33
2023-04-04T09:35:35.691Z,59.87
2023-04-04T09:36:35.680Z,59.88
2023-04-04T09:37:35.704Z,59.75
2023-04-04T09:38:35.736Z,59.16
2023-04-04T09:39:35.756Z,61.35
2023-04-04T09:40:35.761Z,60.20
2023-04-04T09:41:35.757Z,58.95
2023-04-04T09:42:35.762Z,59.00
2023-04-04T09:43:35.990Z,57.26
2023-04-04T09:44:35.800Z,56.78
2023-04-04T09:45:35.826Z,58.06
2023-04-04T09:46:35.861Z,57.01
2023-04-04T09:47:35.902Z,53.11
2023-04-04T09:48:35.841Z,52.87
2023-04-04T09:49:35.866Z,50.21
2023-04-04T09:50:35.888Z,48.60
2023-04-04T09:51:35.883Z,49.07
2023-04-04T09:52:35.960Z,51.17
2023-04-04T09:53:35.908Z,52.23
2023-04-04T09:54:40.262Z,51.00
2023-04-04T09:55:35.908Z,52.26
2023-04-04T09:56:35.908Z,49.42
2023-04-04T09:57:35.948Z,50.38
2023-04-04T09:58:35.967Z,50.44
2023-04-04T09:59:35.954Z,52.19
2023-04-04T10:00:35.939Z,52.13
2023-04-04T10:01:35.959Z,54.31
2023-04-04T10:02:35.957Z,54.91
2023-04-04T10:03:35.999Z,51.31
2023-04-04T10:04:35.982Z,50.70
2023-04-04T10:05:35.914Z,49.42
2023-04-04T10:06:35.921Z,48.98
2023-04-04T10:07:35.936Z,49.59
2023-04-04T10:08:35.974Z,48.79
2023-04-04T10:09:35.961Z,46.17
2023-04-04T10:10:35.936Z,46.82
2023-04-04T10:11:35.998Z,46.99
2023-04-04T10:12:35.933Z,45.93
2023-04-04T10:13:35.954Z,47.00
2023-04-04T10:14:35.930Z,48.12
2023-04-04T10:15:35.963Z,49.75
2023-04-04T10:16:35.931Z,50.23
2023-04-04T10:17:36.000Z,51.18
2023-04-04T10:18:35.941Z,48.23
2023-04-04T10:19:35.960Z,47.62
2023-04-04T10:20:35.963Z,46.40
2023-04-04T10:21:36.026Z,47.26
2023-04-04T10:22:35.997Z,46.70
2023-04-04T10:23:35.990Z,46.37
2023-04-04T10:24:35.984Z,47.09
2023-04-04T10:25:35.990Z,46.78
2023-04-04T10:26:35.964Z,44.59
2023-04-04T10:27:35.957Z,44.07
2023-04-04T10:28:35.997Z,43.03
2023-04-04T10:29:35.973Z,42.97
2023-04-04T10:30:35.957Z,44.63
2023-04-04T10:31:36.001Z,45.26
2023-04-04T10:32:36.048Z,44.96
2023-04-04T10:33:35.976Z,45.25
2023-04-04T10:34:35.918Z,45.10
2023-04-04T10:35:36.031Z,44.55
2023-04-04T10:36:35.982Z,45.38
2023-04-04T10:37:36.003Z,46.11
2023-04-04T10:38:35.961Z,44.80
2023-04-04T10:39:35.970Z,44.24
2023-04-04T10:40:36.027Z,44.28
2023-04-04T10:41:35.964Z,43.06
2023-04-04T10:42:35.973Z,43.18
2023-04-04T10:43:35.991Z,42.17
2023-04-04T10:44:35.980Z,42.30
2023-04-04T10:45:36.002Z,43.06
2023-04-04T10:46:36.028Z,44.36
2023-04-04T10:47:36.009Z,42.38
2023-04-04T10:48:35.991Z,40.67
2023-04-04T10:49:36.021Z,42.50
2023-04-04T10:50:36.010Z,42.65
2023-04-04T10:51:45.115Z,43.96
2023-04-04T10:52:36.032Z,45.79
2023-04-04T10:53:36.025Z,45.47
2023-04-04T10:54:35.987Z,46.06
2023-04-04T10:55:35.990Z,46.19
2023-04-04T10:56:36.064Z,42.44
2023-04-04T10:57:36.000Z,43.75
2023-04-04T10:58:36.045Z,45.95
2023-04-04T10:59:36.167Z,46.89
2023-04-04T11:00:36.039Z,46.61
2023-04-04T11:01:36.010Z,45.94
2023-04-04T11:02:35.995Z,45.14
2023-04-04T11:03:36.023Z,45.26
2023-04-04T11:04:36.092Z,44.08
2023-04-04T11:05:36.008Z,41.79
2023-04-04T11:06:36.024Z,40.61
2023-04-04T11:07:36.012Z,41.59
2023-04-04T11:08:36.018Z,42.17
2023-04-04T11:09:36.013Z,42.56
2023-04-04T11:10:36.036Z,40.90
2023-04-04T11:11:36.046Z,41.95
2023-04-04T11:12:36.034Z,40.93
2023-04-04T11:13:36.047Z,42.38
2023-04-04T11:14:36.034Z,43.43
2023-04-04T11:15:36.037Z,42.84
2023-04-04T11:16:36.096Z,41.66
2023-04-04T11:17:36.037Z,41.22
2023-04-04T11:18:36.056Z,42.17
2023-04-04T11:19:36.041Z,40.75
2023-04-04T11:20:36.071Z,40.25
2023-04-04T11:21:36.029Z,40.83
2023-04-04T11:22:36.024Z,40.34
2023-04-04T11:23:36.036Z,40.00
2023-04-04T11:24:36.054Z,41.04
2023-04-04T11:25:36.075Z,40.53
2023-04-04T11:26:36.031Z,41.31
2023-04-04T11:27:36.065Z,40.92
2023-04-04T11:28:36.066Z,40.91
2023-04-04T11:29:36.070Z,40.74
2023-04-04T11:30:36.071Z,38.42
2023-04-04T11:31:36.119Z,38.83
2023-04-04T11:32:36.126Z,38.15
2023-04-04T11:33:36.117Z,38.97
2023-04-04T11:34:36.061Z,38.25
2023-04-04T11:35:36.097Z,38.46
2023-04-04T11:36:36.082Z,38.03
2023-04-04T11:37:36.067Z,39.61
2023-04-04T11:38:36.111Z,40.02
2023-04-04T11:39:36.054Z,39.93
2023-04-04T11:40:36.033Z,40.19
2023-04-04T11:41:36.089Z,39.59
2023-04-04T11:42:36.117Z,38.66
2023-04-04T11:43:36.069Z,39.05
2023-04-04T11:44:36.063Z,41.01
2023-04-04T11:45:36.078Z,41.94
2023-04-04T11:46:36.165Z,41.81
2023-04-04T11:47:36.107Z,41.51
2023-04-04T11:48:36.104Z,41.96
2023-04-04T11:49:36.081Z,41.03
2023-04-04T11:50:36.068Z,41.03
2023-04-04T11:51:36.107Z,40.89
2023-04-04T11:52:36.079Z,41.53
2023-04-04T11:53:36.091Z,40.82
2023-04-04T11:54:36.087Z,40.69
2023-04-04T11:55:36.083Z,41.29
2023-04-04T11:56:36.101Z,39.95
2023-04-04T11:57:36.088Z,40.54
2023-04-04T11:58:36.098Z,40.39
2023-04-04T11:59:36.128Z,40.19
2023-04-04T12:00:36.095Z,39.47
2023-04-04T12:01:36.116Z,38.80
2023-04-04T12:02:36.104Z,38.32
2023-04-04T12:03:36.223Z,38.60
2023-04-04T12:04:37.344Z,38.95
2023-04-04T12:05:36.192Z,38.00
2023-04-04T12:06:36.114Z,37.80
2023-04-04T12:07:36.083Z,39.77
2023-04-04T12:08:36.117Z,37.34
2023-04-04T12:09:36.110Z,37.03
2023-04-04T12:10:36.153Z,37.59
2023-04-04T12:11:36.087Z,37.66
2023-04-04T12:12:36.111Z,38.18
2023-04-04T12:13:36.139Z,37.23
2023-04-04T12:14:36.178Z,36.84
2023-04-04T12:15:36.188Z,36.80
2023-04-04T12:16:36.176Z,36.60
2023-04-04T12:17:36.213Z,37.10
2023-04-04T12:18:36.175Z,35.95
2023-04-04T12:19:36.238Z,35.18
2023-04-04T12:20:36.245Z,34.79
2023-04-04T12:21:36.241Z,35.41
2023-04-04T12:22:36.219Z,36.02
2023-04-04T12:23:36.249Z,36.63
2023-04-04T12:24:36.263Z,35.61
2023-04-04T12:25:36.295Z,35.20
2023-04-04T12:26:36.316Z,36.33
2023-04-04T12:27:36.284Z,35.09
2023-04-04T12:28:36.326Z,36.65
2023-04-04T12:29:36.582Z,35.13
2023-04-04T12:30:36.344Z,36.67
2023-04-04T12:31:36.406Z,36.91
2023-04-04T12:32:36.412Z,36.65
2023-04-04T12:33:36.434Z,37.20
2023-04-04T12:34:36.532Z,36.06
2023-04-04T12:35:36.493Z,36.77
2023-04-04T12:36:36.454Z,37.34
2023-04-04T12:37:36.443Z,36.64